Time;durP1;ratioP1;P1;durP2;ratioP2;P2;SDS_P1;SDS_P2;PMS_P1;PMS_P2;Temp;Humidity;BMP_temperature;BMP_pressure;BME280_temperature;BME280_humidity;BME280_pressure;Samples;Min_cycle;Max_cycle;Signal;HPM_P1;HPM_P2
2022/01/18 00:00:44;;;;;;;40.40;4.30;;;;;;;5.01;100.00;103540.28;4978460;28;20120;-73
2022/01/18 00:03:14;;;;;;;31.55;5.00;;;;;;;5.02;100.00;103513.22;4962270;28;20113;-74
2022/01/18 00:05:42;;;;;;;33.47;4.82;;;;;;;4.64;100.00;103520.06;4962015;28;20030;-73
2022/01/18 00:08:08;;;;;;;39.70;4.93;;;;;;;4.88;100.00;103537.03;4978796;28;20475;-73
2022/01/18 00:10:33;;;;;;;34.78;4.50;;;;;;;4.08;100.00;103373.69;4962607;28;20030;-73
2022/01/18 00:15:38;;;;;;;30.42;4.18;;;;;;;4.67;100.00;103482.50;5037727;28;20493;-73
2022/01/18 00:23:01;;;;;;;25.38;4.43;;;;;;;4.70;100.00;103504.25;5059061;28;20098;-73
2022/01/18 00:25:27;;;;;;;36.13;4.32;;;;;;;4.93;100.00;103547.47;5059999;28;20029;-73
2022/01/18 00:27:52;;;;;;;34.58;4.60;;;;;;;5.02;100.00;103545.50;5042231;28;20528;-73
2022/01/18 00:33:17;;;;;;;37.83;5.85;;;;;;;4.85;100.00;103547.59;5062128;28;20017;-73
2022/01/18 00:35:45;;;;;;;32.63;4.88;;;;;;;4.64;100.00;103550.59;5028700;28;20045;-72
2022/01/18 00:38:17;;;;;;;31.42;4.15;;;;;;;4.56;100.00;103516.69;5064216;28;20071;-73
2022/01/18 00:40:43;;;;;;;29.38;4.10;;;;;;;4.68;100.00;103536.56;5045544;28;20025;-72
2022/01/18 00:43:08;;;;;;;27.73;3.58;;;;;;;4.64;100.00;103553.22;5043195;28;20047;-74
2022/01/18 00:45:34;;;;;;;27.05;3.63;;;;;;;3.96;100.00;103455.81;5044686;28;20340;-73
2022/01/18 00:48:01;;;;;;;24.92;3.58;;;;;;;4.28;100.00;103493.66;5062918;28;20466;-73
2022/01/18 00:50:31;;;;;;;32.17;4.35;;;;;;;4.47;100.00;103512.50;5041742;28;20049;-73
2022/01/18 00:52:57;;;;;;;28.02;4.13;;;;;;;4.32;100.00;103484.88;5025346;28;20471;-73
2022/01/18 00:55:26;;;;;;;26.60;3.83;;;;;;;4.51;100.00;103549.94;5058489;28;20029;-74
2022/01/18 00:57:51;;;;;;;43.17;4.03;;;;;;;4.35;100.00;103518.81;5040850;28;20045;-73
2022/01/18 01:00:17;;;;;;;30.33;3.95;;;;;;;4.26;100.00;103542.50;5058989;28;20028;-73
2022/01/18 01:02:43;;;;;;;31.15;3.92;;;;;;;4.59;100.00;103567.25;5023554;28;20033;-73
2022/01/18 01:05:09;;;;;;;28.13;3.35;;;;;;;4.26;100.00;103495.44;5058427;28;20029;-72
2022/01/18 01:07:37;;;;;;;29.42;3.47;;;;;;;4.53;100.00;103551.66;5024361;28;20094;-73
2022/01/18 01:10:04;;;;;;;28.83;3.72;;;;;;;4.32;100.00;103508.41;5058807;28;20060;-74
2022/01/18 01:12:29;;;;;;;27.73;4.15;;;;;;;4.31;100.00;103500.56;5059206;28;20025;-73
2022/01/18 01:15:03;;;;;;;31.65;4.35;;;;;;;4.52;100.00;103539.47;5060199;28;20051;-73
2022/01/18 01:41:42;;;;;;;36.55;4.93;;;;;;;4.47;100.00;103503.78;4924662;28;20274;-72
2022/01/18 01:49:14;;;;;;;34.20;4.50;;;;;;;4.53;100.00;103532.47;4944921;29;20058;-73
2022/01/18 01:51:41;;;;;;;34.55;5.15;;;;;;;4.57;100.00;103544.63;4928269;29;20056;-73
2022/01/18 01:54:09;;;;;;;29.20;4.60;;;;;;;4.40;100.00;103516.09;4942618;29;20056;-72
2022/01/18 01:56:36;;;;;;;30.38;4.32;;;;;;;4.42;100.00;103522.19;4937865;28;20038;-72
2022/01/18 01:59:04;;;;;;;32.55;5.32;;;;;;;4.52;100.00;103543.81;4965301;28;20042;-72
2022/01/18 02:05:11;;;;;;;28.65;4.63;;;;;;;4.36;100.00;103536.25;5001598;28;20049;-73
2022/01/18 02:07:36;;;;;;;25.17;4.10;;;;;;;4.48;100.00;103535.16;4999868;28;20038;-73
2022/01/18 02:10:12;;;;;;;32.80;3.88;;;;;;;4.38;100.00;103539.72;4997675;28;20038;-73
2022/01/18 02:12:38;;;;;;;26.02;3.90;;;;;;;4.00;100.00;103468.84;4982402;28;20062;-74
2022/01/18 02:15:24;;;;;;;30.63;4.45;;;;;;;4.47;100.00;103517.72;5056745;28;20029;-73
2022/01/18 02:23:23;;;;;;;26.35;4.32;;;;;;;4.21;100.00;103488.56;5038951;28;20124;-73
2022/01/18 02:25:49;;;;;;;31.48;4.55;;;;;;;4.30;100.00;103497.09;5023465;28;20432;-73
2022/01/18 02:28:16;;;;;;;19.83;4.10;;;;;;;4.41;100.00;103522.22;5040682;28;20025;-73
2022/01/18 02:30:42;;;;;;;26.60;4.53;;;;;;;4.05;100.00;103453.97;5041282;28;20027;-73
2022/01/18 02:33:07;;;;;;;29.77;4.88;;;;;;;4.41;100.00;103537.94;5040217;28;20143;-73
2022/01/18 02:35:34;;;;;;;19.38;4.47;;;;;;;4.39;100.00;103532.72;5039680;28;20475;-73
2022/01/18 02:38:01;;;;;;;24.73;4.97;;;;;;;4.31;100.00;103531.97;5041614;28;20037;-72
2022/01/18 02:40:27;;;;;;;30.52;6.07;;;;;;;4.32;100.00;103531.94;5041669;28;20059;-72
2022/01/18 02:42:58;;;;;;;31.27;5.82;;;;;;;3.95;100.00;103468.91;5062216;28;20021;-72
2022/01/18 02:45:25;;;;;;;25.88;5.85;;;;;;;4.15;100.00;103503.44;5039596;28;20438;-73
2022/01/18 02:47:50;;;;;;;27.13;6.00;;;;;;;3.63;100.00;103415.41;5056953;28;20509;-72
2022/01/18 02:50:36;;;;;;;25.20;5.82;;;;;;;4.02;100.00;103493.22;5014656;28;20132;-73
2022/01/18 02:53:03;;;;;;;29.17;5.90;;;;;;;4.06;100.00;103502.75;4999100;28;20180;-73
2022/01/18 02:55:28;;;;;;;28.42;6.20;;;;;;;3.92;100.00;103461.13;4998123;28;20034;-73
2022/01/18 02:58:01;;;;;;;28.45;6.15;;;;;;;4.10;100.00;103504.41;4998445;28;20026;-73
2022/01/18 03:00:44;;;;;;;25.70;5.68;;;;;;;3.63;100.00;103417.16;5016220;28;20049;-74
2022/01/18 03:03:14;;;;;;;21.40;5.60;;;;;;;4.24;100.00;103536.44;5014637;28;20034;-74
2022/01/18 03:05:44;;;;;;;19.05;5.88;;;;;;;4.32;100.00;103521.50;5015025;28;20539;-74
2022/01/18 03:08:11;;;;;;;30.05;6.28;;;;;;;4.29;100.00;103555.56;4999696;28;20487;-73
2022/01/18 03:10:39;;;;;;;21.80;5.75;;;;;;;4.21;100.00;103543.50;5016908;28;20034;-72
2022/01/18 03:13:06;;;;;;;27.27;5.80;;;;;;;3.27;100.00;103403.75;5015900;28;20075;-73
2022/01/18 03:15:33;;;;;;;21.77;5.40;;;;;;;4.02;100.00;103543.78;4998612;28;20042;-73
2022/01/18 03:18:00;;;;;;;21.27;5.50;;;;;;;4.15;100.00;103541.81;5015423;28;20057;-73
2022/01/18 03:20:26;;;;;;;27.75;6.10;;;;;;;3.89;100.00;103474.25;4999505;28;20057;-73
2022/01/18 03:22:52;;;;;;;25.25;5.53;;;;;;;3.92;100.00;103482.91;5056302;28;20072;-73
2022/01/18 03:28:04;;;;;;;24.38;5.95;;;;;;;3.54;100.00;103426.00;5039109;28;20029;-73
2022/01/18 03:30:30;;;;;;;21.50;5.60;;;;;;;4.09;100.00;103532.34;5056629;28;20053;-73
2022/01/18 03:32:56;;;;;;;19.52;5.72;;;;;;;3.72;100.00;103472.78;5055090;28;20527;-72
2022/01/18 03:35:23;;;;;;;23.05;5.95;;;;;;;3.54;100.00;103466.09;5057071;28;20064;-73
2022/01/18 03:37:52;;;;;;;21.67;6.20;;;;;;;3.58;100.00;103490.41;5040370;28;20091;-73
2022/01/18 03:40:18;;;;;;;21.88;5.97;;;;;;;3.02;100.00;103481.56;5039745;28;20128;-73
2022/01/18 03:42:47;;;;;;;23.77;6.57;;;;;;;3.13;100.00;103506.69;5057778;28;20028;-73
2022/01/18 03:45:24;;;;;;;20.35;6.57;;;;;;;2.79;100.00;103447.91;5040363;28;20033;-72
2022/01/18 03:47:51;;;;;;;24.30;6.80;;;;;;;3.39;100.00;103539.44;5041566;28;20025;-72
2022/01/18 03:50:17;;;;;;;21.70;6.60;;;;;;;3.33;100.00;103503.78;5059034;28;20183;-73
2022/01/18 03:52:47;;;;;;;31.40;7.10;;;;;;;2.88;100.00;103414.75;5043714;28;20495;-74
2022/01/18 03:55:17;;;;;;;25.77;7.15;;;;;;;3.61;100.00;103540.03;5043461;28;20029;-73
2022/01/18 03:57:43;;;;;;;20.92;6.75;;;;;;;3.41;100.00;103487.19;5060271;28;20028;-73
2022/01/18 04:00:21;;;;;;;23.63;6.45;;;;;;;3.76;100.00;103538.91;5057989;28;20163;-73
2022/01/18 04:02:47;;;;;;;25.98;7.10;;;;;;;2.62;100.00;103412.44;5059401;28;20045;-73
2022/01/18 04:05:13;;;;;;;21.17;7.03;;;;;;;3.55;100.00;103563.59;5025718;28;20029;-73
2022/01/18 04:07:39;;;;;;;26.58;6.60;;;;;;;3.80;100.00;103565.91;5042578;28;20426;-73
2022/01/18 04:10:07;;;;;;;18.77;6.15;;;;;;;3.71;100.00;103557.28;5061159;28;20379;-73
2022/01/18 04:12:34;;;;;;;21.75;6.00;;;;;;;2.84;100.00;103459.16;5042215;28;20040;-73
2022/01/18 04:15:09;;;;;;;22.85;6.38;;;;;;;3.36;100.00;103586.47;5042770;28;20202;-73
2022/01/18 04:29:17;;;;;;;18.75;5.90;;;;;;;3.46;100.00;103550.66;5041986;28;20036;-73
2022/01/18 04:31:43;;;;;;;21.30;6.22;;;;;;;3.52;100.00;103574.97;5042025;28;20040;-73
2022/01/18 04:34:08;;;;;;;18.85;5.75;;;;;;;3.61;100.00;103580.94;5058525;28;20025;-73
2022/01/18 04:36:34;;;;;;;18.35;6.00;;;;;;;3.27;100.00;103556.13;5059418;28;20023;-73
2022/01/18 04:39:00;;;;;;;17.58;5.65;;;;;;;3.02;100.00;103521.59;5058849;28;20059;-73
2022/01/18 04:41:30;;;;;;;17.85;5.78;;;;;;;3.13;100.00;103524.06;5059403;28;20052;-72
2022/01/18 04:49:10;;;;;;;24.10;5.88;;;;;;;3.29;100.00;103535.19;5037619;28;20053;-73
2022/01/18 04:51:38;;;;;;;19.65;5.88;;;;;;;3.28;100.00;103530.88;5039020;28;20033;-73
2022/01/18 04:54:07;;;;;;;18.90;6.07;;;;;;;2.84;100.00;103446.09;5022548;28;20037;-73
2022/01/18 04:58:59;;;;;;;36.63;7.88;;;;;;;3.39;100.00;103538.56;5040785;28;20032;-73
2022/01/18 05:01:25;;;;;;;20.45;6.43;;;;;;;3.05;100.00;103482.41;5043543;28;20475;-73
2022/01/18 05:03:51;;;;;;;19.88;6.53;;;;;;;2.98;100.00;103508.63;5027268;28;20032;-73
2022/01/18 05:06:18;;;;;;;30.58;7.05;;;;;;;2.99;100.00;103557.31;5042618;28;20431;-73
2022/01/18 05:08:44;;;;;;;37.92;7.35;;;;;;;2.75;100.00;103556.69;5024580;28;20044;-73
2022/01/18 05:11:14;;;;;;;28.15;6.80;;;;;;;2.96;100.00;103547.78;5040768;28;20535;-73
2022/01/18 05:21:34;;;;;;;29.67;7.25;;;;;;;3.08;100.00;103541.53;5039516;28;20360;-73
2022/01/18 05:24:00;;;;;;;34.17;7.30;;;;;;;3.02;100.00;103525.94;5022452;28;20400;-74
2022/01/18 05:26:27;;;;;;;32.15;8.10;;;;;;;2.75;100.00;103480.13;5039128;28;20025;-73
2022/01/18 05:28:53;;;;;;;27.55;7.47;;;;;;;3.09;100.00;103558.97;5039516;28;20125;-73
2022/01/18 05:31:19;;;;;;;32.42;8.07;;;;;;;3.04;100.00;103569.41;5519637;22;20481;-74
2022/01/18 05:33:47;;;;;;;40.63;6.93;;;;;;;2.77;100.00;103564.50;5076468;28;20054;-75
2022/01/18 05:36:14;;;;;;;35.28;7.30;;;;;;;2.83;100.00;103549.63;5078666;28;20054;-75
2022/01/18 05:38:42;;;;;;;32.42;7.22;;;;;;;2.82;100.00;103523.56;5078943;28;20051;-74
2022/01/18 05:41:10;;;;;;;27.42;6.63;;;;;;;3.07;100.00;103556.34;5042988;28;20020;-75
2022/01/18 05:43:37;;;;;;;26.15;6.72;;;;;;;3.09;100.00;103562.41;5058744;28;20020;-74
2022/01/18 05:46:03;;;;;;;33.83;6.65;;;;;;;2.79;100.00;103518.38;5043455;28;20056;-75
2022/01/18 05:48:31;;;;;;;36.78;7.07;;;;;;;2.76;100.00;103539.28;5059312;28;20081;-76
2022/01/18 05:50:59;;;;;;;29.83;6.80;;;;;;;2.53;100.00;103535.16;5045710;28;20335;-74
2022/01/18 05:53:27;;;;;;;31.08;7.13;;;;;;;2.62;100.00;103534.22;5059159;28;20024;-75
2022/01/18 05:55:53;;;;;;;25.20;6.53;;;;;;;3.07;100.00;103569.41;5058556;28;20048;-74
2022/01/18 05:58:19;;;;;;;26.85;6.68;;;;;;;3.22;100.00;103559.66;5042717;28;20036;-73
2022/01/18 06:00:52;;;;;;;25.88;6.25;;;;;;;3.23;100.00;103537.91;5060247;28;20134;-74
2022/01/18 06:03:27;;;;;;;26.77;6.68;;;;;;;3.20;100.00;103540.53;5042807;28;20028;-75
2022/01/18 06:08:38;;;;;;;52.88;9.45;;;;;;;2.74;100.00;103538.44;5059984;28;20039;-75
2022/01/18 06:11:04;;;;;;;55.05;8.35;;;;;;;2.64;100.00;103527.25;5058860;28;20020;-73
2022/01/18 06:13:29;;;;;;;23.35;5.82;;;;;;;2.88;100.00;103554.81;5042767;28;20514;-73
2022/01/18 06:16:00;;;;;;;29.73;6.18;;;;;;;3.16;100.00;103575.38;5078606;28;20480;-73
2022/01/18 06:18:26;;;;;;;45.03;5.32;;;;;;;3.07;100.00;103574.63;5064983;28;20378;-74
2022/01/18 06:20:53;;;;;;;38.10;5.47;;;;;;;3.06;100.00;103564.19;5048641;28;20025;-72
2022/01/18 06:23:19;;;;;;;24.65;4.68;;;;;;;3.06;100.00;103575.50;5087817;28;20029;-74
2022/01/18 06:25:55;;;;;;;;;;;;;;;;;;;;;
2022/01/18 06:28:21;;;;;;;38.13;4.97;;;;;;;2.95;100.00;103564.28;5069190;28;20039;-72
2022/01/18 06:30:47;;;;;;;21.73;4.25;;;;;;;3.07;100.00;103569.41;5067947;28;20032;-74
2022/01/18 06:33:13;;;;;;;22.33;3.70;;;;;;;2.43;100.00;103528.28;5074691;28;20044;-73
2022/01/18 06:35:39;;;;;;;18.05;3.88;;;;;;;2.53;100.00;103550.81;5072193;28;20367;-75
2022/01/18 06:38:05;;;;;;;24.13;4.05;;;;;;;2.51;100.00;103569.06;5057562;28;20023;-74
2022/01/18 06:40:31;;;;;;;19.30;4.07;;;;;;;2.30;100.00;103544.03;5071971;28;20231;-75
2022/01/18 06:42:56;;;;;;;35.30;5.20;;;;;;;2.66;100.00;103575.91;5070339;28;20028;-74
2022/01/18 06:45:31;;;;;;;30.75;4.75;;;;;;;2.40;100.00;103547.44;5042979;28;20535;-75
2022/01/18 06:48:00;;;;;;;28.75;4.95;;;;;;;2.52;100.00;103582.97;5053467;28;20070;-74
2022/01/18 06:50:26;;;;;;;38.97;5.45;;;;;;;2.53;100.00;103592.53;5052114;28;20116;-71
2022/01/18 06:52:54;;;;;;;30.08;5.20;;;;;;;2.69;100.00;103561.97;5055989;28;20028;-74
2022/01/18 06:55:20;;;;;;;55.13;4.75;;;;;;;2.48;100.00;103589.97;5073254;28;20048;-76
2022/01/18 06:57:46;;;;;;;30.42;4.38;;;;;;;2.36;100.00;103556.16;5056260;28;20062;-75
2022/01/18 07:00:13;;;;;;;49.03;5.20;;;;;;;2.56;100.00;103576.00;5072295;28;20033;-73
2022/01/18 07:02:38;;;;;;;57.67;5.45;;;;;;;2.40;100.00;103567.44;5065647;28;20517;-75
2022/01/18 07:05:04;;;;;;;75.00;7.07;;;;;;;2.71;100.00;103555.00;5062046;28;20036;-76
2022/01/18 07:07:30;;;;;;;31.42;7.47;;;;;;;2.97;100.00;103572.13;5057423;28;20585;-75
2022/01/18 07:09:59;;;;;;;47.65;6.32;;;;;;;2.76;100.00;103561.03;5061048;28;20202;-77
2022/01/18 07:12:26;;;;;;;24.25;4.95;;;;;;;3.08;100.00;103570.25;5055082;28;20036;-73
2022/01/18 07:14:52;;;;;;;30.50;5.80;;;;;;;3.17;100.00;103592.81;5071163;28;20056;-74
2022/01/18 07:17:17;;;;;;;45.47;5.53;;;;;;;2.91;100.00;103584.38;5054856;28;20019;-75
2022/01/18 07:19:46;;;;;;;17.25;4.60;;;;;;;2.82;100.00;103563.56;5053650;28;20367;-74
2022/01/18 07:22:11;;;;;;;40.67;4.82;;;;;;;2.66;100.00;103595.94;5070358;28;20020;-74
2022/01/18 07:24:40;;;;;;;35.28;4.28;;;;;;;2.41;100.00;103590.03;5059687;28;20017;-73
2022/01/18 07:27:08;;;;;;;35.58;4.40;;;;;;;2.39;100.00;103570.94;5070347;28;20107;-76
2022/01/18 07:29:34;;;;;;;26.33;4.07;;;;;;;2.47;100.00;103569.09;5068234;28;20082;-74
2022/01/18 07:32:00;;;;;;;33.55;4.03;;;;;;;2.50;100.00;103585.63;5069752;28;20044;-75
2022/01/18 07:34:26;;;;;;;16.95;4.43;;;;;;;2.37;100.00;103590.94;5071562;28;20037;-73
2022/01/18 07:36:53;;;;;;;32.80;9.23;;;;;;;2.38;100.00;103564.81;5052874;28;20509;-72
2022/01/18 07:39:22;;;;;;;16.88;4.15;;;;;;;2.55;100.00;103571.66;5070281;28;20040;-79
2022/01/18 07:41:48;;;;;;;22.77;5.55;;;;;;;2.50;100.00;103561.28;5064854;28;20025;-75
2022/01/18 07:44:14;;;;;;;61.10;5.28;;;;;;;2.49;100.00;103594.28;5060357;28;20044;-75
2022/01/18 07:46:40;;;;;;;26.85;4.70;;;;;;;2.61;100.00;103592.47;5043585;28;20056;-74
2022/01/18 07:49:05;;;;;;;40.78;5.20;;;;;;;2.50;100.00;103598.66;5051892;28;20044;-75
2022/01/18 07:51:31;;;;;;;23.80;5.20;;;;;;;2.26;100.00;103584.06;5045058;28;20419;-75
2022/01/18 07:53:58;;;;;;;31.02;4.43;;;;;;;2.29;100.00;103606.63;5049944;28;20043;-76
2022/01/18 07:56:27;;;;;;;26.95;4.22;;;;;;;2.22;100.00;103553.66;5052604;28;20033;-75
2022/01/18 07:58:52;;;;;;;19.10;3.78;;;;;;;2.54;100.00;103576.00;5052300;28;20056;-75
2022/01/18 08:01:20;;;;;;;21.25;4.60;;;;;;;2.65;100.00;103581.13;5034799;28;20033;-74
2022/01/18 08:03:46;;;;;;;27.25;6.05;;;;;;;2.80;100.00;103596.66;5020637;28;20124;-75
2022/01/18 08:06:12;;;;;;;28.95;5.43;;;;;;;2.61;100.00;103622.06;5054723;28;20107;-75
2022/01/18 08:08:39;;;;;;;28.98;4.18;;;;;;;2.63;100.00;103622.03;5058815;28;20155;-74
2022/01/18 08:11:11;;;;;;;37.55;4.63;;;;;;;2.32;100.00;103571.84;5053669;28;20033;-74
2022/01/18 08:13:41;;;;;;;28.83;5.05;;;;;;;2.56;100.00;103578.59;5051817;28;20025;-74
2022/01/18 08:18:54;;;;;;;16.52;4.40;;;;;;;2.15;100.00;103609.31;5051967;28;20032;-75
2022/01/18 08:21:27;;;;;;;29.45;5.38;;;;;;;2.27;100.00;103575.38;5052397;28;20029;-75
2022/01/18 08:23:55;;;;;;;33.92;4.90;;;;;;;2.45;100.00;103602.16;5053344;28;20067;-73
2022/01/18 08:26:53;;;;;;;30.45;5.55;;;;;;;2.62;100.00;103591.59;5055871;28;20029;-74
2022/01/18 08:29:19;;;;;;;20.60;5.03;;;;;;;2.81;100.00;103577.50;4979295;28;20157;-73
2022/01/18 08:31:46;;;;;;;18.52;5.13;;;;;;;3.21;100.00;103582.31;4965079;28;20152;-73
2022/01/18 08:34:13;;;;;;;17.52;4.82;;;;;;;2.62;100.00;103565.50;4966368;28;20119;-72
2022/01/18 08:36:40;;;;;;;19.52;5.00;;;;;;;2.86;100.00;103587.88;4998507;28;20027;-73
2022/01/18 08:39:07;;;;;;;26.95;4.80;;;;;;;2.86;100.00;103590.50;4991537;28;20109;-74
2022/01/18 08:41:33;;;;;;;14.95;4.30;;;;;;;3.30;100.00;103592.66;4993669;28;20038;-74
2022/01/18 08:43:59;;;;;;;13.50;4.35;;;;;;;3.21;100.00;103581.44;4979363;28;20030;-73
2022/01/18 08:46:29;;;;;;;33.08;4.05;;;;;;;2.87;100.00;103582.66;4992495;28;20057;-73
2022/01/18 08:48:55;;;;;;;16.67;3.97;;;;;;;1.88;100.00;103576.47;4987966;28;20066;-73
2022/01/18 08:51:21;;;;;;;29.30;4.50;;;;;;;1.69;100.00;103577.47;4973633;28;20031;-73
2022/01/18 08:54:00;;;;;;;21.45;4.45;;;;;;;1.54;100.00;103578.41;4998507;28;20081;-74
2022/01/18 08:56:25;;;;;;;33.38;10.80;;;;;;;1.84;100.00;103588.69;4969311;28;20184;-74
2022/01/18 08:58:51;;;;;;;43.33;6.28;;;;;;;1.88;100.00;103563.44;4982752;28;20180;-77
2022/01/18 09:01:17;;;;;;;29.58;11.43;;;;;;;2.29;100.00;103565.78;4984320;28;20161;-76
2022/01/18 09:03:45;;;;;;;42.10;6.00;;;;;;;2.03;100.00;103601.59;5002249;28;20065;-75
2022/01/18 09:06:16;;;;;;;35.13;5.45;;;;;;;1.85;100.00;103572.16;5025448;28;20041;-75
2022/01/18 09:08:42;;;;;;;21.42;4.63;;;;;;;1.96;100.00;103595.56;5050246;28;20021;-76
2022/01/18 09:11:11;;;;;;;29.33;4.60;;;;;;;1.78;100.00;103619.97;5069559;28;20044;-75
2022/01/18 09:13:39;;;;;;;24.55;4.80;;;;;;;1.89;100.00;103617.31;5070238;28;20028;-76
2022/01/18 09:16:09;;;;;;;23.25;4.80;;;;;;;1.77;100.00;103604.34;5045563;28;20497;-75
2022/01/18 09:18:35;;;;;;;21.23;5.65;;;;;;;2.04;100.00;103595.50;5057819;28;20056;-75
2022/01/18 09:21:01;;;;;;;13.05;4.75;;;;;;;2.25;100.00;103584.94;5055591;28;20029;-75
2022/01/18 09:23:27;;;;;;;18.30;4.70;;;;;;;2.43;100.00;103604.81;5057487;28;20036;-76
2022/01/18 09:25:53;;;;;;;13.95;4.55;;;;;;;2.53;100.00;103578.63;5039589;28;20071;-74
2022/01/18 09:28:19;;;;;;;19.85;4.57;;;;;;;2.61;100.00;103587.25;5038754;28;20032;-75
2022/01/18 09:30:45;;;;;;;23.48;4.15;;;;;;;2.32;100.00;103624.88;5055295;28;20083;-75
2022/01/18 09:33:12;;;;;;;196.32;63.95;;;;;;;1.93;100.00;103603.41;5023765;28;20037;-75
2022/01/18 09:35:39;;;;;;;50.38;5.32;;;;;;;1.86;100.00;103606.88;5050561;28;20478;-76
2022/01/18 09:38:10;;;;;;;17.88;4.38;;;;;;;2.10;100.00;103582.44;5034957;28;20036;-74
2022/01/18 09:40:38;;;;;;;25.33;4.28;;;;;;;2.53;100.00;103570.81;5037508;28;20091;-76
2022/01/18 09:43:10;;;;;;;16.58;3.78;;;;;;;2.36;100.00;103616.13;5020121;28;20021;-75
2022/01/18 09:45:36;;;;;;;13.43;4.30;;;;;;;2.37;100.00;103602.22;5039476;28;20021;-74
2022/01/18 09:48:05;;;;;;;15.45;3.67;;;;;;;2.03;100.00;103609.41;5038981;28;20040;-75
2022/01/18 09:50:33;;;;;;;22.73;4.05;;;;;;;2.12;100.00;103574.63;5047183;28;20131;-75
2022/01/18 09:53:01;;;;;;;16.55;4.20;;;;;;;2.02;100.00;103599.84;5029478;28;20036;-75
2022/01/18 09:55:30;;;;;;;17.98;4.30;;;;;;;2.68;100.00;103631.56;5045217;28;20029;-75
2022/01/18 09:57:58;;;;;;;15.73;3.90;;;;;;;2.27;100.00;103588.41;5046288;28;20032;-74
2022/01/18 10:00:27;;;;;;;16.05;4.28;;;;;;;1.89;100.00;103606.91;5041629;28;20026;-74
2022/01/18 10:02:53;;;;;;;18.02;4.07;;;;;;;1.94;100.00;103644.22;5020805;28;20041;-74
2022/01/18 10:05:25;;;;;;;12.80;4.22;;;;;;;2.08;100.00;103646.75;5018695;28;20021;-74
2022/01/18 10:08:01;;;;;;;19.58;4.32;;;;;;;1.86;100.00;103596.47;5034220;28;20381;-74
2022/01/18 10:10:37;;;;;;;14.57;3.83;;;;;;;2.18;100.00;103644.94;5034306;28;20120;-77
2022/01/18 10:13:03;;;;;;;14.20;3.83;;;;;;;1.85;100.00;103610.38;5059244;28;20029;-74
2022/01/18 10:15:32;;;;;;;22.20;3.47;;;;;;;1.58;100.00;103601.81;5067577;28;20053;-74
2022/01/18 10:18:09;;;;;;;17.77;3.17;;;;;;;1.61;100.00;103611.34;5521335;22;20119;-74
2022/01/18 10:20:53;;;;;;;9.45;3.50;;;;;;;1.60;100.00;103623.53;5020608;28;20193;-75
2022/01/18 10:23:21;;;;;;;19.80;4.07;;;;;;;1.78;100.00;103624.31;5037173;28;20033;-75
2022/01/18 10:25:47;;;;;;;13.85;3.60;;;;;;;1.45;100.00;103590.59;5023658;28;20468;-73
2022/01/18 10:28:34;;;;;;;10.13;3.83;;;;;;;2.05;100.00;103646.78;5037366;28;20025;-74
2022/01/18 10:31:05;;;;;;;16.55;4.20;;;;;;;1.92;100.00;103632.94;5036576;28;20120;-73
2022/01/18 10:33:37;;;;;;;16.88;4.10;;;;;;;2.26;100.00;103604.91;5036481;28;20033;-74
2022/01/18 10:36:10;;;;;;;11.15;3.92;;;;;;;2.13;100.00;103579.78;5038508;28;20395;-73
2022/01/18 10:38:43;;;;;;;16.15;3.67;;;;;;;2.52;100.00;103614.28;5020764;28;20029;-74
2022/01/18 10:41:23;;;;;;;16.88;3.97;;;;;;;2.64;100.00;103593.31;5035931;28;20487;-74
2022/01/18 10:44:14;;;;;;;12.43;4.72;;;;;;;2.67;100.00;103590.66;5019497;28;20029;-75
2022/01/18 10:46:48;;;;;;;11.07;4.40;;;;;;;2.91;100.00;103578.28;5019751;28;20021;-74
2022/01/18 10:49:31;;;;;;;10.52;4.50;;;;;;;2.64;100.00;103616.81;5035694;28;20022;-73
2022/01/18 10:52:09;;;;;;;16.58;5.30;;;;;;;2.60;100.00;103594.22;5036832;28;20105;-76
2022/01/18 10:54:39;;;;;;;15.02;4.13;;;;;;;2.96;100.00;103610.41;5034406;28;20026;-76
2022/01/18 10:57:07;;;;;;;15.38;4.82;;;;;;;2.80;100.00;103617.53;5020897;28;20147;-75
2022/01/18 10:59:34;;;;;;;25.67;5.25;;;;;;;2.61;100.00;103609.00;5035738;28;20101;-75
2022/01/18 11:02:14;;;;;;;18.02;5.20;;;;;;;2.63;100.00;103595.94;5016897;28;20024;-73
2022/01/18 11:04:45;;;;;;;43.30;5.95;;;;;;;2.57;100.00;103606.44;5034334;28;20068;-74
2022/01/18 11:07:13;;;;;;;32.78;5.47;;;;;;;2.43;100.00;103623.06;5036846;28;20025;-75
2022/01/18 11:09:39;;;;;;;37.20;5.75;;;;;;;2.34;100.00;103577.91;5037570;28;20056;-75
2022/01/18 11:12:10;;;;;;;64.53;6.78;;;;;;;2.13;100.00;103595.44;5023166;28;20387;-75
2022/01/18 11:14:44;;;;;;;17.38;5.95;;;;;;;2.46;100.00;103596.94;5015854;28;20037;-73
2022/01/18 11:17:23;;;;;;;24.80;6.05;;;;;;;2.71;100.00;103623.69;5016780;28;20056;-76
2022/01/18 11:19:57;;;;;;;21.50;6.57;;;;;;;2.60;100.00;103609.88;5051812;28;20091;-72
2022/01/18 11:22:45;;;;;;;20.40;6.80;;;;;;;2.59;100.00;103591.59;5033923;28;20071;-76
2022/01/18 11:25:11;;;;;;;44.30;7.60;;;;;;;2.99;100.00;103594.72;5036391;28;20033;-76
2022/01/18 11:27:39;;;;;;;32.10;7.53;;;;;;;2.33;100.00;103573.59;5049798;28;20013;-76
2022/01/18 11:30:09;;;;;;;39.50;7.28;;;;;;;2.56;100.00;103597.72;5051294;28;20017;-75
2022/01/18 11:32:41;;;;;;;43.88;10.70;;;;;;;2.48;100.00;103595.19;5043638;28;20021;-74
2022/01/18 11:35:32;;;;;;;37.90;11.05;;;;;;;2.69;100.00;103606.31;5024506;28;20024;-76
2022/01/18 11:38:22;;;;;;;32.85;8.85;;;;;;;2.87;100.00;103605.28;5057166;28;20028;-76
2022/01/18 11:40:53;;;;;;;56.25;10.13;;;;;;;2.78;100.00;103608.00;5051096;28;20112;-77
2022/01/18 11:43:39;;;;;;;42.65;10.27;;;;;;;3.02;100.00;103609.47;5039974;28;20075;-75
2022/01/18 11:46:37;;;;;;;27.75;10.65;;;;;;;3.30;100.00;103605.69;5040829;28;20047;-77
2022/01/18 11:49:06;;;;;;;43.87;11.20;;;;;;;3.19;100.00;103606.72;5024936;28;20037;-76
2022/01/18 11:51:48;;;;;;;29.75;10.55;;;;;;;2.95;100.00;103585.19;5043876;28;20260;-80
2022/01/18 11:54:42;;;;;;;28.52;10.50;;;;;;;3.35;100.00;103596.06;5026062;28;20021;-78
2022/01/18 11:58:05;;;;;;;29.95;10.13;;;;;;;3.33;100.00;103568.22;5043455;28;20100;-78
2022/01/18 12:01:33;;;;;;;;;;;;;;;;;;;;;
2022/01/18 12:04:40;;;;;;;55.45;10.48;;;;;;;3.18;100.00;103604.97;5016268;28;20041;-80
2022/01/18 12:07:47;;;;;;;;;;;;;;;;;;;;;
2022/01/18 12:10:52;;;;;;;;;;;;;;;;;;;;;
2022/01/18 12:16:21;;;;;;;39.28;11.85;;;;;;;3.27;100.00;103599.63;5432768;22;20045;-75
2022/01/18 12:19:04;;;;;;;41.42;12.20;;;;;;;3.67;100.00;103579.13;5078304;28;20032;-77
2022/01/18 12:21:32;;;;;;;48.50;11.80;;;;;;;2.85;100.00;103513.09;5074301;28;20027;-77
2022/01/18 12:24:13;;;;;;;38.95;12.82;;;;;;;3.15;100.00;103590.19;5073793;28;20082;-79
2022/01/18 12:26:43;;;;;;;41.55;13.05;;;;;;;3.45;100.00;103577.66;5076974;28;20379;-76
2022/01/18 12:34:32;;;;;;;46.85;14.15;;;;;;;3.83;100.00;103577.16;5072978;28;20204;-76
2022/01/18 12:37:24;;;;;;;38.97;14.38;;;;;;;3.88;100.00;103574.47;5090722;28;20020;-76
2022/01/18 12:39:49;;;;;;;43.05;14.20;;;;;;;3.45;100.00;103567.22;5072060;28;20436;-77
2022/01/18 12:45:06;;;;;;;44.00;15.13;;;;;;;3.62;100.00;103567.00;5071305;28;20021;-74
2022/01/18 12:47:40;;;;;;;53.45;15.18;;;;;;;3.46;100.00;103543.69;5070606;28;20500;-73
2022/01/18 12:50:10;;;;;;;51.07;15.93;;;;;;;3.64;100.00;103570.47;5075569;28;20148;-74
2022/01/18 12:52:46;;;;;;;49.10;15.88;;;;;;;3.44;100.00;103558.50;5077093;28;20051;-72
2022/01/18 12:55:47;;;;;;;53.45;16.30;;;;;;;3.23;100.00;103557.03;5070432;28;20475;-76
2022/01/18 12:58:31;;;;;;;51.47;15.05;;;;;;;3.30;100.00;103547.38;5077615;28;20047;-77
2022/01/18 13:01:04;;;;;;;53.85;19.27;;;;;;;3.32;100.00;103551.69;5074463;28;20017;-75
2022/01/18 13:03:34;;;;;;;74.00;25.57;;;;;;;3.21;100.00;103519.63;5078386;28;20052;-75
2022/01/18 13:06:04;;;;;;;56.70;16.50;;;;;;;2.32;100.00;103399.72;5064725;28;20731;-76
2022/01/18 13:08:55;;;;;;;52.13;18.20;;;;;;;3.49;100.00;103556.69;5057032;28;20051;-77
2022/01/18 13:11:38;;;;;;;56.83;18.92;;;;;;;2.26;100.00;103385.03;5018780;28;20034;-75